Steinkjer, Norge

03:24:CET den 05. desember 2016 (GMT +0100)
Korea / Malmlia | | Change Station
Gjeldende advarsel: >

H.o.h 110 ft 64.07 °N, 11.22 °E | Updated 16 seconds ago

Light Rain
Lett regn
38.1 °F
Feels Like 38 °F
N
0.7
Vind Variabel Vind from NV
Gusts 6.9 mph

I dag
High -- | Low -- °F
--% Chance of Precip.
I går
High -- | Low -- °F
Precip. -- tommer
Lufttrykk 29.77 tommer
Sikt 5.0 eng. mil
Skyet Few 1500 ft
For det meste skyet 2700 ft
Nedkjølingseffekt 38 °F
Duggpunkt 36 °F
Fuktighet 92%
Regn 0.05 tommer
Snødybde Not available.
9:41 AM 2:27 PM
Økende sigd, 27% visible
METAR ENVA 050050Z 30031G41KT 8000 -RA FEW015 BKN027 06/04 Q1008 RERA WS RWY27 RMK WIND 670FT 30036G48KT
Lufttrykk 29.77 tommer
Sikt 5.0 eng. mil
Skyet Few 1500 ft
For det meste skyet 2700 ft
Nedkjølingseffekt 38 °F
Duggpunkt 36 °F
Fuktighet 92%
Regn 0.05 tommer
Snødybde Not available.
9:41 AM 2:27 PM
Økende sigd, 27% visible
METAR ENVA 050050Z 30031G41KT 8000 -RA FEW015 BKN027 06/04 Q1008 RERA WS RWY27 RMK WIND 670FT 30036G48KT

10-Day Weather Forecast

×

Almanac

Astronomi

Dec. 05, 2016 Oppgang Nedgang
Virkelig tid
Tussmørke
Nautisk skumring
Astronomisk skumring
Månen
Lengde av synlig lys
Dagens lengde
Tomorrow will be .
, % of the Moon is Illuminated

Dagens maks og min

Country Highs Country Lows

Community

WunderPhotos

Upload Photos

1,955,746 photos uploaded!

WunderBlog® & News

Nearby

Luftkvalitet

  Luftkvalitet AQ Indeks Forurensing
Not available.

Snødybde

Stasjon Depth Høyde over havet

Earthquake Activity

By Distance Mag. Time & Date
Minimum magnitude displayed is 2.5.

Coastal Water Temperatures

Sted Temperatur

Stations

Nearby Weather Stations

Stasjonens lokasjon Temp. Nedkjølingseffekt Duggpunkt Fuktighet Vind Precip. H.o.h Oppdatert Type